Time;durP1;ratioP1;P1;durP2;ratioP2;P2;SDS_P1;SDS_P2;PMS_P1;PMS_P2;Temp;Humidity;BMP_temperature;BMP_pressure;BME280_temperature;BME280_humidity;BME280_pressure;Samples;Min_cycle;Max_cycle;Signal;HPM_P1;HPM_P2
2021/08/09 00:00:20;;;;;;;34.85;7.10;;;;;;;;;;5008215;28;20382;-35
2021/08/09 00:02:47;;;;;;;33.75;8.23;;;;;;;;;;5010233;28;20033;-38
2021/08/09 00:05:14;;;;;;;19.65;6.35;;;;;;;;;;5009863;28;20033;-40
2021/08/09 00:07:41;;;;;;;29.35;7.88;;;;;;;;;;5004915;28;20101;-39
2021/08/09 00:10:09;;;;;;;26.40;6.32;;;;;;;;;;5007203;28;20026;-44
2021/08/09 00:12:36;;;;;;;32.25;7.30;;;;;;;;;;5005992;28;20517;-44
2021/08/09 00:15:04;;;;;;;30.10;7.60;;;;;;;;;;4991758;28;20029;-36
2021/08/09 00:17:31;;;;;;;26.50;7.10;;;;;;;;;;5005778;28;20037;-42
2021/08/09 00:19:58;;;;;;;22.15;6.93;;;;;;;;;;5008099;28;20038;-57
2021/08/09 00:22:25;;;;;;;18.83;6.00;;;;;;;;;;5009555;28;20220;-54
2021/08/09 00:24:52;;;;;;;27.27;7.07;;;;;;;;;;5006242;28;20043;-52
2021/08/09 00:27:19;;;;;;;26.85;6.30;;;;;;;;;;5003662;28;20038;-36
2021/08/09 00:29:46;;;;;;;28.17;5.93;;;;;;;;;;5008924;28;20033;-47
2021/08/09 00:32:13;;;;;;;25.77;6.63;;;;;;;;;;5005841;28;20145;-44
2021/08/09 00:34:41;;;;;;;26.58;6.90;;;;;;;;;;5010273;28;20084;-40
2021/08/09 00:37:08;;;;;;;21.25;6.97;;;;;;;;;;5002994;28;20441;-36
2021/08/09 00:39:35;;;;;;;22.73;5.97;;;;;;;;;;5000832;28;20046;-49
2021/08/09 00:42:02;;;;;;;18.92;5.85;;;;;;;;;;4999844;28;20053;-42
2021/08/09 00:44:29;;;;;;;24.77;6.18;;;;;;;;;;5005704;28;20037;-56
2021/08/09 00:46:56;;;;;;;22.70;6.07;;;;;;;;;;5006515;28;20191;-49
2021/08/09 00:49:23;;;;;;;25.60;6.30;;;;;;;;;;5001848;28;20061;-36
2021/08/09 00:51:51;;;;;;;26.60;6.82;;;;;;;;;;5008579;28;20029;-51
2021/08/09 00:54:19;;;;;;;25.00;5.32;;;;;;;;;;5007779;28;20029;-37
2021/08/09 00:56:47;;;;;;;26.20;7.55;;;;;;;;;;5007280;28;20466;-41
2021/08/09 00:59:14;;;;;;;23.55;9.90;;;;;;;;;;5002316;28;20482;-41
2021/08/09 01:01:41;;;;;;;37.28;14.90;;;;;;;;;;5005232;28;20038;-38
2021/08/09 01:04:09;;;;;;;39.80;16.63;;;;;;;;;;5007668;28;20481;-37
2021/08/09 01:06:36;;;;;;;47.80;21.48;;;;;;;;;;5008778;28;20037;-36
2021/08/09 01:09:15;;;;;;;47.05;22.60;;;;;;;;;;5000763;28;20022;-47
2021/08/09 01:11:44;;;;;;;45.00;22.83;;;;;;;;;;5008550;28;20034;-48
2021/08/09 01:14:17;;;;;;;58.15;25.40;;;;;;;;;;5009754;28;20069;-41
2021/08/09 01:16:45;;;;;;;63.05;26.33;;;;;;;;;;5009435;28;20037;-45
2021/08/09 01:19:27;;;;;;;65.07;28.52;;;;;;;;;;5006056;28;20080;-43
2021/08/09 01:21:59;;;;;;;60.17;26.67;;;;;;;;;;5013033;28;20045;-37
2021/08/09 01:24:34;;;;;;;59.13;28.23;;;;;;;;;;5003254;28;20495;-38
2021/08/09 01:27:06;;;;;;;56.97;26.15;;;;;;;;;;5004443;28;20406;-37
2021/08/09 01:29:37;;;;;;;54.60;26.45;;;;;;;;;;4989190;28;20489;-39
2021/08/09 01:32:07;;;;;;;59.67;26.90;;;;;;;;;;5013450;28;20549;-37
2021/08/09 01:34:35;;;;;;;56.13;25.23;;;;;;;;;;4999984;28;20389;-39
2021/08/09 01:37:04;;;;;;;48.50;25.40;;;;;;;;;;5012565;28;20117;-37
2021/08/09 01:39:31;;;;;;;58.20;25.50;;;;;;;;;;5004852;28;20049;-39
2021/08/09 01:41:58;;;;;;;57.65;23.95;;;;;;;;;;4993485;28;20418;-36
2021/08/09 01:44:26;;;;;;;48.20;23.75;;;;;;;;;;4995639;28;20100;-35
2021/08/09 01:46:53;;;;;;;62.05;24.75;;;;;;;;;;4998042;28;20413;-42
2021/08/09 01:49:27;;;;;;;55.53;23.85;;;;;;;;;;5014087;28;20424;-41
2021/08/09 01:51:54;;;;;;;47.33;22.60;;;;;;;;;;5011787;28;20420;-36
2021/08/09 01:54:21;;;;;;;53.05;23.38;;;;;;;;;;5003620;28;20026;-36
2021/08/09 01:56:48;;;;;;;50.15;22.08;;;;;;;;;;5001324;28;20018;-37
2021/08/09 01:59:15;;;;;;;44.45;20.27;;;;;;;;;;5005771;28;20105;-36
2021/08/09 02:01:42;;;;;;;48.42;21.20;;;;;;;;;;4998070;28;20425;-36
2021/08/09 02:04:10;;;;;;;45.70;20.67;;;;;;;;;;5000998;28;20410;-37
2021/08/09 02:06:37;;;;;;;47.33;19.15;;;;;;;;;;4996997;28;20018;-35
2021/08/09 02:09:06;;;;;;;50.28;20.27;;;;;;;;;;5000743;28;20029;-36
2021/08/09 02:11:53;;;;;;;42.95;19.38;;;;;;;;;;5000515;28;20065;-36
2021/08/09 02:14:22;;;;;;;44.72;17.92;;;;;;;;;;4998692;28;20570;-36
2021/08/09 02:16:54;;;;;;;50.88;19.67;;;;;;;;;;4999554;28;20054;-40
2021/08/09 02:19:23;;;;;;;41.30;17.65;;;;;;;;;;5011535;28;20381;-36
2021/08/09 02:21:54;;;;;;;45.53;17.63;;;;;;;;;;5013595;28;20041;-37
2021/08/09 02:24:37;;;;;;;39.92;17.55;;;;;;;;;;5009011;28;20026;-38
2021/08/09 02:27:17;;;;;;;32.03;15.82;;;;;;;;;;5004378;28;20022;-38
2021/08/09 02:29:54;;;;;;;36.50;16.60;;;;;;;;;;5000721;28;20098;-37
2021/08/09 02:32:24;;;;;;;36.33;15.73;;;;;;;;;;5003652;28;20099;-37
2021/08/09 02:34:52;;;;;;;36.95;16.33;;;;;;;;;;5012371;28;20459;-44
2021/08/09 02:37:19;;;;;;;33.22;15.75;;;;;;;;;;5007979;28;20425;-37
2021/08/09 02:39:46;;;;;;;31.30;15.00;;;;;;;;;;5007290;28;20049;-37
2021/08/09 02:42:14;;;;;;;34.60;14.35;;;;;;;;;;5013016;28;20381;-37
2021/08/09 02:44:41;;;;;;;31.80;14.77;;;;;;;;;;5013076;28;20017;-40
2021/08/09 02:47:09;;;;;;;32.30;15.18;;;;;;;;;;5013278;28;20396;-37
2021/08/09 02:49:36;;;;;;;32.95;15.77;;;;;;;;;;5008292;28;20034;-40
2021/08/09 02:52:04;;;;;;;30.55;14.10;;;;;;;;;;5013607;28;20022;-37
2021/08/09 02:54:32;;;;;;;31.17;13.40;;;;;;;;;;4992540;28;20018;-37
2021/08/09 02:56:59;;;;;;;30.08;13.18;;;;;;;;;;5008395;28;20021;-40
2021/08/09 02:59:26;;;;;;;32.58;13.88;;;;;;;;;;5007347;28;20549;-44
2021/08/09 03:01:53;;;;;;;31.85;13.57;;;;;;;;;;5012896;28;20524;-37
2021/08/09 03:04:22;;;;;;;27.52;12.73;;;;;;;;;;5013668;28;20478;-41
2021/08/09 03:06:50;;;;;;;25.10;12.43;;;;;;;;;;5012921;28;20650;-39
2021/08/09 03:09:17;;;;;;;28.05;13.15;;;;;;;;;;5007606;28;20033;-38
2021/08/09 03:11:45;;;;;;;25.48;11.70;;;;;;;;;;5013414;28;20378;-38
2021/08/09 03:14:25;;;;;;;22.23;11.00;;;;;;;;;;5012928;28;20026;-37
2021/08/09 03:16:52;;;;;;;27.42;11.95;;;;;;;;;;5012735;28;20018;-41
2021/08/09 03:19:19;;;;;;;25.60;11.30;;;;;;;;;;4991403;28;20084;-36
2021/08/09 03:21:50;;;;;;;27.60;11.95;;;;;;;;;;5011412;28;20046;-36
2021/08/09 03:24:18;;;;;;;23.50;10.90;;;;;;;;;;5012905;28;20058;-37
2021/08/09 03:26:45;;;;;;;22.13;11.52;;;;;;;;;;5012305;28;20022;-37
2021/08/09 03:29:12;;;;;;;22.27;10.68;;;;;;;;;;5011337;28;20034;-37
2021/08/09 03:31:39;;;;;;;27.38;10.43;;;;;;;;;;5009165;28;20028;-39
2021/08/09 03:34:06;;;;;;;21.20;10.30;;;;;;;;;;5012827;28;20121;-49
2021/08/09 03:36:33;;;;;;;21.70;10.48;;;;;;;;;;5012537;28;20025;-39
2021/08/09 03:39:00;;;;;;;21.65;9.93;;;;;;;;;;5011688;28;20442;-37
2021/08/09 03:41:28;;;;;;;20.98;10.27;;;;;;;;;;5007703;28;20041;-37
2021/08/09 03:43:55;;;;;;;23.80;10.07;;;;;;;;;;5012625;28;20014;-42
2021/08/09 03:46:23;;;;;;;18.95;9.48;;;;;;;;;;4993479;28;20386;-38
2021/08/09 03:48:50;;;;;;;20.52;9.30;;;;;;;;;;5011332;28;20033;-41
2021/08/09 03:51:17;;;;;;;19.13;9.38;;;;;;;;;;5007465;28;20034;-42
2021/08/09 03:53:44;;;;;;;17.92;8.48;;;;;;;;;;5012532;28;20025;-50
2021/08/09 03:56:11;;;;;;;20.35;9.35;;;;;;;;;;5012236;28;20036;-40
2021/08/09 03:58:38;;;;;;;17.25;8.88;;;;;;;;;;5011733;28;20033;-37
2021/08/09 04:01:06;;;;;;;19.23;10.10;;;;;;;;;;5007240;28;20234;-42
2021/08/09 04:03:34;;;;;;;22.92;9.00;;;;;;;;;;5011988;28;20104;-38
2021/08/09 04:06:01;;;;;;;20.13;7.97;;;;;;;;;;4998487;28;20062;-38
2021/08/09 04:08:28;;;;;;;17.02;7.90;;;;;;;;;;5011730;28;20030;-37
2021/08/09 04:10:55;;;;;;;15.15;8.10;;;;;;;;;;5006522;28;20033;-47
2021/08/09 04:13:22;;;;;;;18.50;8.25;;;;;;;;;;5011690;28;20105;-59
2021/08/09 04:15:49;;;;;;;14.25;7.75;;;;;;;;;;5012273;28;20474;-59
2021/08/09 04:18:16;;;;;;;16.23;7.40;;;;;;;;;;5011691;28;20034;-59
2021/08/09 04:20:43;;;;;;;16.15;7.78;;;;;;;;;;5008607;28;20045;-46
2021/08/09 04:23:10;;;;;;;19.30;8.27;;;;;;;;;;5010069;28;20032;-59
2021/08/09 04:25:37;;;;;;;15.38;8.15;;;;;;;;;;5011820;28;20381;-41
2021/08/09 04:28:05;;;;;;;12.93;7.13;;;;;;;;;;5011543;28;20025;-36
2021/08/09 04:30:32;;;;;;;16.90;7.32;;;;;;;;;;4990361;28;20026;-37
2021/08/09 04:33:03;;;;;;;18.00;7.57;;;;;;;;;;5006935;28;20018;-38
2021/08/09 04:35:30;;;;;;;22.03;7.23;;;;;;;;;;5011802;28;20021;-40
2021/08/09 04:37:58;;;;;;;13.20;6.10;;;;;;;;;;5011282;28;20101;-44
2021/08/09 04:40:25;;;;;;;14.32;7.10;;;;;;;;;;5010671;28;20050;-37
2021/08/09 04:42:52;;;;;;;11.10;6.70;;;;;;;;;;5006992;28;20017;-43
2021/08/09 04:45:19;;;;;;;14.50;6.57;;;;;;;;;;5011553;28;20029;-38
2021/08/09 04:47:46;;;;;;;17.85;7.28;;;;;;;;;;5017917;28;20053;-37
2021/08/09 04:50:13;;;;;;;17.48;6.38;;;;;;;;;;5016174;28;20022;-37
2021/08/09 04:52:43;;;;;;;14.18;6.30;;;;;;;;;;5013488;28;20477;-39
2021/08/09 04:55:11;;;;;;;15.50;7.18;;;;;;;;;;5018083;28;20117;-37
2021/08/09 04:57:38;;;;;;;13.38;6.15;;;;;;;;;;5017234;28;20493;-37
2021/08/09 05:00:05;;;;;;;12.00;5.80;;;;;;;;;;5017308;28;20453;-44
2021/08/09 05:02:32;;;;;;;11.07;5.72;;;;;;;;;;5012914;28;20109;-38
2021/08/09 05:05:00;;;;;;;12.20;6.10;;;;;;;;;;5017893;28;20022;-38
2021/08/09 05:07:27;;;;;;;12.02;5.95;;;;;;;;;;5017804;28;20030;-46
2021/08/09 05:09:54;;;;;;;12.88;5.80;;;;;;;;;;5017409;28;20026;-40
2021/08/09 05:12:21;;;;;;;9.30;5.63;;;;;;;;;;5012624;28;20038;-39
2021/08/09 05:14:48;;;;;;;9.02;5.45;;;;;;;;;;5017770;28;20436;-59
2021/08/09 05:17:15;;;;;;;10.48;5.07;;;;;;;;;;5017874;28;20026;-36
2021/08/09 05:19:42;;;;;;;10.93;5.50;;;;;;;;;;5017411;28;20704;-36
2021/08/09 05:22:09;;;;;;;13.80;5.93;;;;;;;;;;5015289;28;20124;-37
2021/08/09 05:24:36;;;;;;;10.25;5.25;;;;;;;;;;5016232;28;20030;-39
2021/08/09 05:27:03;;;;;;;8.18;5.10;;;;;;;;;;5018059;28;20104;-37
2021/08/09 05:29:31;;;;;;;10.07;4.80;;;;;;;;;;5017772;28;20028;-37
2021/08/09 05:31:59;;;;;;;10.70;5.50;;;;;;;;;;5018104;28;20586;-37
2021/08/09 05:34:26;;;;;;;9.25;4.97;;;;;;;;;;5013241;28;20381;-37
2021/08/09 05:36:53;;;;;;;9.80;4.72;;;;;;;;;;5018083;28;20020;-44
2021/08/09 05:39:20;;;;;;;8.70;5.28;;;;;;;;;;5017243;28;20406;-37
2021/08/09 05:41:47;;;;;;;10.05;4.82;;;;;;;;;;5017748;28;20033;-39
2021/08/09 05:44:14;;;;;;;8.20;4.25;;;;;;;;;;5013119;28;20056;-37
2021/08/09 05:46:42;;;;;;;8.85;4.53;;;;;;;;;;5017932;28;20064;-37
2021/08/09 05:49:10;;;;;;;7.07;4.53;;;;;;;;;;5017404;28;20442;-37
2021/08/09 05:51:39;;;;;;;10.70;5.18;;;;;;;;;;5017215;28;20381;-40
2021/08/09 05:54:08;;;;;;;8.93;4.45;;;;;;;;;;5012900;28;20030;-37
2021/08/09 05:56:35;;;;;;;8.52;4.47;;;;;;;;;;5017833;28;20417;-37
2021/08/09 05:59:02;;;;;;;7.10;4.13;;;;;;;;;;5012596;28;20044;-37
2021/08/09 06:01:29;;;;;;;8.68;4.20;;;;;;;;;;5014257;28;20057;-37
2021/08/09 06:03:56;;;;;;;11.55;4.45;;;;;;;;;;5010022;28;20018;-37
2021/08/09 06:06:24;;;;;;;7.25;4.13;;;;;;;;;;5013830;28;20442;-47
2021/08/09 06:08:51;;;;;;;8.32;4.43;;;;;;;;;;5014314;28;20088;-37
2021/08/09 06:11:18;;;;;;;8.07;4.20;;;;;;;;;;5013524;28;20054;-37
2021/08/09 06:13:45;;;;;;;7.57;4.50;;;;;;;;;;5009089;28;20421;-39
2021/08/09 06:16:12;;;;;;;8.63;4.07;;;;;;;;;;5014082;28;20121;-37
2021/08/09 06:18:39;;;;;;;8.30;4.00;;;;;;;;;;5014153;28;20025;-36
2021/08/09 06:21:07;;;;;;;5.97;3.65;;;;;;;;;;5013016;28;20045;-48
2021/08/09 06:23:34;;;;;;;7.45;3.63;;;;;;;;;;4993189;28;20125;-37
2021/08/09 06:26:01;;;;;;;7.20;3.53;;;;;;;;;;5010935;28;20037;-37
2021/08/09 06:28:28;;;;;;;8.68;3.70;;;;;;;;;;5013962;28;20358;-36
2021/08/09 06:30:55;;;;;;;8.20;3.92;;;;;;;;;;4993451;28;20089;-37
2021/08/09 06:33:22;;;;;;;5.97;3.47;;;;;;;;;;5006065;28;20031;-37
2021/08/09 06:35:49;;;;;;;6.20;3.47;;;;;;;;;;5008359;28;20413;-37
2021/08/09 06:38:16;;;;;;;5.78;3.38;;;;;;;;;;5010437;28;20355;-37
2021/08/09 06:40:45;;;;;;;6.57;3.45;;;;;;;;;;5002603;28;20050;-37
2021/08/09 06:43:12;;;;;;;7.75;3.47;;;;;;;;;;5012936;28;20052;-39
2021/08/09 06:45:43;;;;;;;6.57;3.50;;;;;;;;;;5008480;28;20414;-37
2021/08/09 06:48:11;;;;;;;5.95;3.63;;;;;;;;;;5013419;28;20065;-40
2021/08/09 06:50:39;;;;;;;6.57;3.55;;;;;;;;;;5013202;28;20393;-37
2021/08/09 06:53:06;;;;;;;5.40;3.08;;;;;;;;;;4992109;28;20465;-52
2021/08/09 06:55:33;;;;;;;6.43;3.22;;;;;;;;;;5001316;28;20378;-37
2021/08/09 06:58:00;;;;;;;6.28;3.25;;;;;;;;;;5013528;28;20544;-37
2021/08/09 07:00:27;;;;;;;10.10;3.60;;;;;;;;;;5013249;28;20057;-37
2021/08/09 07:02:54;;;;;;;7.15;3.22;;;;;;;;;;5012521;28;20553;-39
2021/08/09 07:05:21;;;;;;;7.13;3.20;;;;;;;;;;5008429;28;20032;-37
2021/08/09 07:07:52;;;;;;;7.53;2.83;;;;;;;;;;5012854;28;20474;-38
2021/08/09 07:10:19;;;;;;;6.70;3.00;;;;;;;;;;4999945;28;20497;-36
2021/08/09 07:12:46;;;;;;;5.45;2.78;;;;;;;;;;5012753;28;20489;-37
2021/08/09 07:15:13;;;;;;;5.63;2.63;;;;;;;;;;5007902;28;20584;-37
2021/08/09 07:17:41;;;;;;;5.15;3.00;;;;;;;;;;5012779;28;20355;-37
2021/08/09 07:20:13;;;;;;;4.82;2.72;;;;;;;;;;5012765;28;20099;-38
2021/08/09 07:22:44;;;;;;;7.43;3.00;;;;;;;;;;5012734;28;20065;-37
2021/08/09 07:25:12;;;;;;;4.65;2.78;;;;;;;;;;5009268;28;20385;-36
2021/08/09 07:27:39;;;;;;;6.40;3.13;;;;;;;;;;5011678;28;20022;-37
2021/08/09 07:30:08;;;;;;;4.65;2.40;;;;;;;;;;4993665;28;20076;-40
2021/08/09 07:32:35;;;;;;;5.43;2.88;;;;;;;;;;5012628;28;20189;-37
2021/08/09 07:35:02;;;;;;;6.55;2.95;;;;;;;;;;5011879;28;20374;-41
2021/08/09 07:37:29;;;;;;;5.80;3.05;;;;;;;;;;5008560;28;20026;-49
2021/08/09 07:39:56;;;;;;;4.03;2.20;;;;;;;;;;5012221;28;20050;-41
2021/08/09 07:42:24;;;;;;;5.28;2.60;;;;;;;;;;5012158;28;20069;-55
2021/08/09 07:44:51;;;;;;;6.03;2.97;;;;;;;;;;5012301;28;20033;-40
2021/08/09 07:47:18;;;;;;;4.93;2.85;;;;;;;;;;5007355;28;20042;-40
2021/08/09 07:49:45;;;;;;;3.95;2.42;;;;;;;;;;5012562;28;20029;-44
2021/08/09 07:52:12;;;;;;;6.53;2.72;;;;;;;;;;5012292;28;20083;-38
2021/08/09 07:54:39;;;;;;;4.25;2.50;;;;;;;;;;5011800;28;20017;-37
2021/08/09 07:57:07;;;;;;;5.72;2.53;;;;;;;;;;5007229;28;20022;-43
2021/08/09 07:59:34;;;;;;;4.93;2.20;;;;;;;;;;5011961;28;20022;-36
2021/08/09 08:02:02;;;;;;;5.25;2.38;;;;;;;;;;5012220;28;20698;-37
2021/08/09 08:04:29;;;;;;;5.57;2.53;;;;;;;;;;5011487;28;20026;-42
2021/08/09 08:06:57;;;;;;;6.65;2.45;;;;;;;;;;5007499;28;20045;-49
2021/08/09 08:09:24;;;;;;;4.03;2.20;;;;;;;;;;4994529;28;20428;-44
2021/08/09 08:11:51;;;;;;;4.55;2.50;;;;;;;;;;5012357;28;20370;-37
2021/08/09 08:14:18;;;;;;;5.53;2.30;;;;;;;;;;5011378;28;20022;-44
2021/08/09 08:16:46;;;;;;;4.47;2.10;;;;;;;;;;5007298;28;20029;-39
2021/08/09 08:19:13;;;;;;;4.05;2.40;;;;;;;;;;4994731;28;20034;-39
2021/08/09 08:21:40;;;;;;;4.90;2.67;;;;;;;;;;5010829;28;20038;-48
2021/08/09 08:24:08;;;;;;;4.60;2.50;;;;;;;;;;5010342;28;20481;-37
2021/08/09 08:26:35;;;;;;;6.13;2.15;;;;;;;;;;5008785;28;20048;-44
2021/08/09 08:29:02;;;;;;;4.05;2.15;;;;;;;;;;5009853;28;20377;-46
2021/08/09 08:31:29;;;;;;;4.78;2.08;;;;;;;;;;5012347;28;20114;-38
2021/08/09 08:33:56;;;;;;;4.13;2.22;;;;;;;;;;5011334;28;20026;-36
2021/08/09 08:36:23;;;;;;;3.40;1.88;;;;;;;;;;5011726;28;20036;-48
2021/08/09 08:38:50;;;;;;;4.97;2.42;;;;;;;;;;5006454;28;20041;-42
2021/08/09 08:41:18;;;;;;;3.03;1.98;;;;;;;;;;5011391;28;20069;-37
2021/08/09 08:43:45;;;;;;;4.38;2.17;;;;;;;;;;5010731;28;20030;-37
2021/08/09 08:46:12;;;;;;;3.75;2.08;;;;;;;;;;5011646;28;20556;-36
2021/08/09 08:48:39;;;;;;;3.45;1.88;;;;;;;;;;5006608;28;20072;-44
2021/08/09 08:51:06;;;;;;;3.92;1.88;;;;;;;;;;5010787;28;20021;-43
2021/08/09 08:53:35;;;;;;;4.90;2.35;;;;;;;;;;5011749;28;20537;-41
2021/08/09 08:56:06;;;;;;;5.45;2.10;;;;;;;;;;5011207;28;20030;-38
2021/08/09 08:58:33;;;;;;;3.85;1.95;;;;;;;;;;5006601;28;20045;-37
2021/08/09 09:01:00;;;;;;;4.13;1.95;;;;;;;;;;5011401;28;20397;-46
2021/08/09 09:03:28;;;;;;;4.53;1.80;;;;;;;;;;5011584;28;20050;-57
2021/08/09 09:06:03;;;;;;;2.72;1.52;;;;;;;;;;5011101;28;20020;-37
2021/08/09 09:08:59;;;;;;;4.22;1.85;;;;;;;;;;5006471;28;20478;-38
2021/08/09 09:11:27;;;;;;;4.13;1.65;;;;;;;;;;4998878;28;20037;-38
2021/08/09 09:13:56;;;;;;;3.63;1.63;;;;;;;;;;5011149;28;20474;-44
2021/08/09 09:16:23;;;;;;;4.32;1.63;;;;;;;;;;5011170;28;20064;-37
2021/08/09 09:18:55;;;;;;;4.72;1.70;;;;;;;;;;5006265;28;20425;-37
2021/08/09 09:21:25;;;;;;;3.03;1.60;;;;;;;;;;5011249;28;20234;-39
2021/08/09 09:23:54;;;;;;;2.00;1.27;;;;;;;;;;5011115;28;20041;-37
2021/08/09 09:26:25;;;;;;;4.15;1.50;;;;;;;;;;5010488;28;20425;-37
2021/08/09 09:28:52;;;;;;;3.83;1.90;;;;;;;;;;5006888;28;20026;-36
2021/08/09 09:31:30;;;;;;;2.38;1.50;;;;;;;;;;5011047;28;20026;-36
2021/08/09 09:33:57;;;;;;;4.78;1.70;;;;;;;;;;5015204;28;20018;-41
2021/08/09 09:36:25;;;;;;;3.58;1.52;;;;;;;;;;5014800;28;20048;-38
2021/08/09 09:38:52;;;;;;;2.28;1.58;;;;;;;;;;5009539;28;20042;-37
2021/08/09 09:41:23;;;;;;;3.20;1.45;;;;;;;;;;5014767;28;20045;-53
2021/08/09 09:43:50;;;;;;;3.40;1.58;;;;;;;;;;5015218;28;20440;-58
2021/08/09 09:46:24;;;;;;;1.90;1.27;;;;;;;;;;5014448;28;20021;-58
2021/08/09 09:49:02;;;;;;;2.95;1.50;;;;;;;;;;5009582;28;20397;-50
2021/08/09 09:51:29;;;;;;;2.95;1.40;;;;;;;;;;5014447;28;20093;-58
2021/08/09 09:54:08;;;;;;;3.75;1.30;;;;;;;;;;5015200;28;20493;-55
2021/08/09 09:56:37;;;;;;;3.50;1.27;;;;;;;;;;5013838;28;20398;-49
2021/08/09 09:59:04;;;;;;;2.08;1.00;;;;;;;;;;5009399;28;20084;-51
2021/08/09 10:01:31;;;;;;;2.65;1.00;;;;;;;;;;5014317;28;20408;-54
2021/08/09 10:03:58;;;;;;;3.60;1.20;;;;;;;;;;5014758;28;20426;-54
2021/08/09 10:06:26;;;;;;;1.75;1.00;;;;;;;;;;4996068;28;20120;-58
2021/08/09 10:08:55;;;;;;;2.22;1.38;;;;;;;;;;5012299;28;20409;-50
2021/08/09 10:11:22;;;;;;;3.80;1.25;;;;;;;;;;5011410;28;20030;-57
2021/08/09 10:13:50;;;;;;;2.22;1.30;;;;;;;;;;5014455;28;20018;-58
2021/08/09 10:16:17;;;;;;;3.25;1.38;;;;;;;;;;5013971;28;20456;-57
2021/08/09 10:18:49;;;;;;;3.13;1.02;;;;;;;;;;5000573;28;20389;-52
2021/08/09 10:21:18;;;;;;;2.65;1.23;;;;;;;;;;5009089;28;20042;-46
2021/08/09 10:23:49;;;;;;;1.90;1.10;;;;;;;;;;5014070;28;20401;-38
2021/08/09 10:26:22;;;;;;;3.47;0.90;;;;;;;;;;5013829;28;20096;-57
2021/08/09 10:28:55;;;;;;;3.00;1.23;;;;;;;;;;5013760;28;20381;-57
2021/08/09 10:31:22;;;;;;;2.10;0.95;;;;;;;;;;5008884;28;20093;-55
2021/08/09 10:33:50;;;;;;;1.30;0.80;;;;;;;;;;5014263;28;20677;-45
2021/08/09 10:36:21;;;;;;;2.03;1.10;;;;;;;;;;5013706;28;20060;-53
2021/08/09 10:38:49;;;;;;;4.05;1.20;;;;;;;;;;5013299;28;20116;-54
2021/08/09 10:41:16;;;;;;;1.67;1.10;;;;;;;;;;5008136;28;20128;-53
2021/08/09 10:44:01;;;;;;;2.00;1.20;;;;;;;;;;5012883;28;20627;-51
2021/08/09 10:46:36;;;;;;;1.92;0.90;;;;;;;;;;5013219;28;20447;-53
2021/08/09 10:49:03;;;;;;;2.70;1.00;;;;;;;;;;5012712;28;20022;-58
2021/08/09 10:51:51;;;;;;;2.25;0.88;;;;;;;;;;5009096;28;20168;-41
2021/08/09 10:54:26;;;;;;;3.50;1.05;;;;;;;;;;5013447;28;20037;-56
2021/08/09 10:56:53;;;;;;;1.88;0.90;;;;;;;;;;5012680;28;20032;-58
2021/08/09 10:59:39;;;;;;;1.40;1.05;;;;;;;;;;5010216;28;20627;-42
2021/08/09 11:02:06;;;;;;;1.00;0.70;;;;;;;;;;5013357;28;20092;-48
2021/08/09 11:04:33;;;;;;;2.25;0.90;;;;;;;;;;5009904;28;20562;-41
2021/08/09 11:07:15;;;;;;;3.63;0.80;;;;;;;;;;5013137;28;20022;-38
2021/08/09 11:09:43;;;;;;;2.58;0.88;;;;;;;;;;5012480;28;20493;-38
2021/08/09 11:12:13;;;;;;;1.58;0.77;;;;;;;;;;5013209;28;20022;-50
2021/08/09 11:14:59;;;;;;;2.28;0.90;;;;;;;;;;5013419;28;20052;-39
2021/08/09 11:17:26;;;;;;;3.53;0.77;;;;;;;;;;5013279;28;20638;-37
2021/08/09 11:19:54;;;;;;;4.32;0.90;;;;;;;;;;5012750;28;20037;-37
2021/08/09 11:22:21;;;;;;;2.10;0.88;;;;;;;;;;5013396;28;20026;-37
2021/08/09 11:24:48;;;;;;;3.05;1.02;;;;;;;;;;5013065;28;20546;-37
2021/08/09 11:27:15;;;;;;;2.15;1.02;;;;;;;;;;5012671;28;20498;-37
2021/08/09 11:29:55;;;;;;;1.55;0.80;;;;;;;;;;5012984;28;20034;-37
2021/08/09 11:32:37;;;;;;;1.25;0.60;;;;;;;;;;5012689;28;20114;-37
2021/08/09 11:35:05;;;;;;;2.40;1.05;;;;;;;;;;5012747;28;20029;-37
2021/08/09 11:37:33;;;;;;;3.45;0.90;;;;;;;;;;5007109;28;20433;-38
2021/08/09 11:40:00;;;;;;;3.33;1.00;;;;;;;;;;5011503;28;20505;-37
2021/08/09 11:42:47;;;;;;;2.92;1.00;;;;;;;;;;5012321;28;20033;-37
2021/08/09 11:45:24;;;;;;;3.22;1.35;;;;;;;;;;5008747;28;20096;-37
2021/08/09 11:47:51;;;;;;;9.00;1.50;;;;;;;;;;4995465;28;20081;-37
2021/08/09 11:50:18;;;;;;;3.88;1.25;;;;;;;;;;5009247;28;20046;-37
2021/08/09 11:52:45;;;;;;;2.95;1.38;;;;;;;;;;5011897;28;20028;-37
2021/08/09 11:55:19;;;;;;;2.83;1.60;;;;;;;;;;5004215;28;20022;-37
2021/08/09 11:57:46;;;;;;;7.43;1.70;;;;;;;;;;5011692;28;20112;-37
2021/08/09 12:00:13;;;;;;;3.75;1.35;;;;;;;;;;5012028;28;20103;-45
2021/08/09 12:02:58;;;;;;;3.95;1.45;;;;;;;;;;5011281;28;20026;-37
2021/08/09 12:05:25;;;;;;;3.78;1.48;;;;;;;;;;5008266;28;20022;-37
2021/08/09 12:08:03;;;;;;;2.78;1.45;;;;;;;;;;5009640;28;20025;-60
2021/08/09 12:10:30;;;;;;;3.85;1.75;;;;;;;;;;5011555;28;20109;-59
2021/08/09 12:12:57;;;;;;;4.63;1.33;;;;;;;;;;5011301;28;20064;-53
2021/08/09 12:15:25;;;;;;;3.60;1.40;;;;;;;;;;5004341;28;20128;-47
2021/08/09 12:18:05;;;;;;;3.13;1.40;;;;;;;;;;5010285;28;20137;-54
2021/08/09 12:20:32;;;;;;;3.13;1.38;;;;;;;;;;5011567;28;20068;-36
2021/08/09 12:23:00;;;;;;;3.83;1.33;;;;;;;;;;4992206;28;20478;-36
2021/08/09 12:25:40;;;;;;;2.47;1.17;;;;;;;;;;5011071;28;20030;-36
2021/08/09 12:28:08;;;;;;;4.32;1.42;;;;;;;;;;5010327;28;20382;-37
2021/08/09 12:30:54;;;;;;;3.65;1.42;;;;;;;;;;5010337;28;20033;-37
2021/08/09 12:33:21;;;;;;;4.15;1.20;;;;;;;;;;5009599;28;20018;-37
2021/08/09 12:35:48;;;;;;;4.15;1.15;;;;;;;;;;5002459;28;20061;-38
2021/08/09 12:38:16;;;;;;;4.15;1.15;;;;;;;;;;5001403;28;20496;-44
2021/08/09 12:40:45;;;;;;;2.58;1.35;;;;;;;;;;5002455;28;20453;-43
2021/08/09 12:43:14;;;;;;;2.38;1.10;;;;;;;;;;5011775;28;20076;-38
2021/08/09 12:45:42;;;;;;;2.58;1.23;;;;;;;;;;5011601;28;20389;-37
2021/08/09 12:48:10;;;;;;;3.38;1.20;;;;;;;;;;4993374;28;20022;-37
2021/08/09 12:50:38;;;;;;;3.75;1.30;;;;;;;;;;4999705;28;20031;-42
2021/08/09 12:53:08;;;;;;;2.53;1.10;;;;;;;;;;4986364;28;20033;-40
2021/08/09 12:55:35;;;;;;;2.05;0.85;;;;;;;;;;4996266;28;20076;-36
2021/08/09 12:58:03;;;;;;;3.90;1.25;;;;;;;;;;5000479;28;20441;-51
2021/08/09 13:00:30;;;;;;;2.85;1.10;;;;;;;;;;5003134;28;20037;-42
2021/08/09 13:02:57;;;;;;;8.48;1.05;;;;;;;;;;4993316;28;20810;-45
2021/08/09 13:05:24;;;;;;;2.45;1.13;;;;;;;;;;5000191;28;20425;-45
2021/08/09 13:07:51;;;;;;;5.93;1.20;;;;;;;;;;5069905;23;20501;-42
2021/08/09 13:10:18;;;;;;;3.90;1.00;;;;;;;;;;4992182;28;20775;-41
2021/08/09 13:12:45;;;;;;;4.47;1.17;;;;;;;;;;4996701;28;20538;-45
2021/08/09 13:15:13;;;;;;;4.32;1.38;;;;;;;;;;5009979;28;20109;-49
2021/08/09 13:17:40;;;;;;;2.40;1.10;;;;;;;;;;5016399;28;20554;-49
2021/08/09 13:20:07;;;;;;;3.95;1.17;;;;;;;;;;5018478;28;20036;-42
2021/08/09 13:22:34;;;;;;;2.42;0.90;;;;;;;;;;5014019;28;20029;-39
2021/08/09 13:25:03;;;;;;;6.13;1.15;;;;;;;;;;5026285;28;20457;-39
2021/08/09 13:27:30;;;;;;;4.32;1.20;;;;;;;;;;5017434;28;20037;-39
2021/08/09 13:29:59;;;;;;;3.65;1.30;;;;;;;;;;5022505;28;20029;-37
2021/08/09 13:32:26;;;;;;;10.98;1.13;;;;;;;;;;5025934;28;20120;-37
2021/08/09 13:34:53;;;;;;;3.70;0.70;;;;;;;;;;5016099;28;20024;-39
2021/08/09 13:37:20;;;;;;;4.18;1.30;;;;;;;;;;5023232;28;20034;-36
2021/08/09 13:39:48;;;;;;;6.90;1.20;;;;;;;;;;5013896;28;20433;-39
2021/08/09 13:42:16;;;;;;;2.38;0.90;;;;;;;;;;5011887;28;20124;-40
2021/08/09 13:44:43;;;;;;;5.30;0.90;;;;;;;;;;5008320;28;20091;-39
2021/08/09 13:47:12;;;;;;;6.78;1.00;;;;;;;;;;5014497;28;20044;-37
2021/08/09 13:49:39;;;;;;;8.48;0.98;;;;;;;;;;4997601;28;20459;-46
2021/08/09 13:52:07;;;;;;;9.48;1.35;;;;;;;;;;5009527;28;20021;-38
2021/08/09 13:54:34;;;;;;;12.85;1.25;;;;;;;;;;5006785;28;20065;-42
2021/08/09 13:57:00;;;;;;;6.25;1.45;;;;;;;;;;5013402;28;20508;-40
2021/08/09 13:59:28;;;;;;;5.95;1.10;;;;;;;;;;5022097;28;20390;-35
2021/08/09 14:01:55;;;;;;;6.00;1.02;;;;;;;;;;5014214;28;20037;-38
2021/08/09 14:04:22;;;;;;;4.93;1.02;;;;;;;;;;5009883;28;20036;-38
2021/08/09 14:06:49;;;;;;;9.75;1.00;;;;;;;;;;5014777;28;20028;-36
2021/08/09 14:09:16;;;;;;;15.02;1.23;;;;;;;;;;4976637;28;20046;-37
2021/08/09 14:11:43;;;;;;;5.18;1.08;;;;;;;;;;4978793;28;20062;-40
2021/08/09 14:14:10;;;;;;;6.97;1.40;;;;;;;;;;4989773;28;20105;-38
2021/08/09 14:16:37;;;;;;;5.63;1.13;;;;;;;;;;4985419;28;20486;-37
2021/08/09 14:19:04;;;;;;;6.18;0.82;;;;;;;;;;4957906;28;20037;-52
2021/08/09 14:21:32;;;;;;;10.07;1.10;;;;;;;;;;4951967;28;20835;-55
2021/08/09 14:23:59;;;;;;;7.15;1.10;;;;;;;;;;4979173;28;20022;-38
2021/08/09 14:26:26;;;;;;;7.47;1.50;;;;;;;;;;4977995;28;20354;-41
2021/08/09 14:29:05;;;;;;;7.35;1.00;;;;;;;;;;4966874;28;20018;-40
2021/08/09 14:31:32;;;;;;;9.55;1.33;;;;;;;;;;4964423;28;20030;-39
2021/08/09 14:33:59;;;;;;;12.70;1.40;;;;;;;;;;4981822;28;20486;-38
2021/08/09 14:36:26;;;;;;;13.10;1.40;;;;;;;;;;4986034;28;20054;-48
2021/08/09 14:38:53;;;;;;;5.78;1.17;;;;;;;;;;4957515;28;20417;-43
2021/08/09 14:41:20;;;;;;;7.43;1.40;;;;;;;;;;4972320;28;20046;-39
2021/08/09 14:43:47;;;;;;;3.88;1.10;;;;;;;;;;4985935;28;20018;-47